createdAt,value
2023-05-09T00:00:01.572Z,101420.47
2023-05-09T00:00:53.106Z,101425.72
2023-05-09T00:01:45.401Z,101425.66
2023-05-09T00:02:38.614Z,101418.69
2023-05-09T00:03:30.207Z,101422.19
2023-05-09T00:04:22.157Z,101416.91
2023-05-09T00:05:15.272Z,101415.16
2023-05-09T00:06:07.465Z,101416.06
2023-05-09T00:07:01.318Z,101416.91
2023-05-09T00:07:52.832Z,101415.16
2023-05-09T00:08:44.299Z,101415.16
2023-05-09T00:09:35.913Z,101413.44
2023-05-09T00:10:27.614Z,101408.19
2023-05-09T00:11:19.055Z,101413.41
2023-05-09T00:12:12.181Z,101411.72
2023-05-09T00:13:03.949Z,101406.53
2023-05-09T00:13:57.764Z,101404.81
2023-05-09T00:14:51.720Z,101402.09
2023-05-09T00:15:44.283Z,101408.25
2023-05-09T00:16:40.314Z,101404.75
2023-05-09T00:17:36.325Z,101401.25
2023-05-09T00:18:28.461Z,101393.28
2023-05-09T00:19:20.140Z,101397.69
2023-05-09T00:20:12.812Z,101403.72
2023-05-09T00:21:04.504Z,101402.00
2023-05-09T00:21:56.361Z,101395.06
2023-05-09T00:22:50.149Z,101395.06
2023-05-09T00:23:41.575Z,101398.53
2023-05-09T00:24:33.128Z,101391.44
2023-05-09T00:25:24.717Z,101392.22
2023-05-09T00:26:16.408Z,101386.88
2023-05-09T00:27:09.820Z,101385.16
2023-05-09T00:28:01.322Z,101389.53
2023-05-09T00:28:53.153Z,101389.50
2023-05-09T00:29:44.977Z,101385.94
2023-05-09T00:30:36.478Z,101385.88
2023-05-09T00:31:27.956Z,101382.31
2023-05-09T00:32:19.386Z,101386.63
2023-05-09T00:33:10.853Z,101388.31
2023-05-09T00:34:03.529Z,101380.47
2023-05-09T00:34:56.096Z,101383.06
2023-05-09T00:35:47.733Z,101387.41
2023-05-09T00:36:39.544Z,101380.41
2023-05-09T00:37:31.476Z,101379.59
2023-05-09T00:38:23.610Z,101377.88
2023-05-09T00:39:17.289Z,101377.06
2023-05-09T00:40:09.419Z,101374.44
2023-05-09T00:41:00.941Z,101371.84
2023-05-09T00:41:53.729Z,101371.84
2023-05-09T00:42:45.801Z,101377.13
2023-05-09T00:43:37.468Z,101379.75
2023-05-09T00:44:29.184Z,101375.41
2023-05-09T00:45:21.918Z,101373.66
2023-05-09T00:46:13.631Z,101380.63
2023-05-09T00:47:07.597Z,101373.59
2023-05-09T00:48:01.532Z,101373.59
2023-05-09T00:48:53.540Z,101369.25
2023-05-09T00:49:45.011Z,101374.59
2023-05-09T00:50:36.735Z,101375.50
2023-05-09T00:51:29.246Z,101373.81
2023-05-09T00:52:23.510Z,101367.69
2023-05-09T00:53:14.927Z,101368.59
2023-05-09T00:54:09.210Z,101369.50
2023-05-09T00:55:02.596Z,101366.06
2023-05-09T00:55:59.907Z,101365.22
2023-05-09T00:56:51.852Z,101359.06
2023-05-09T00:57:45.277Z,101357.34
2023-05-09T00:58:37.665Z,101360.00
2023-05-09T00:59:29.301Z,101356.53
2023-05-09T01:00:21.317Z,101358.31
2023-05-09T01:01:14.871Z,101357.44
2023-05-09T01:02:06.937Z,101359.19
2023-05-09T01:02:58.933Z,101350.53
2023-05-09T01:03:51.474Z,101354.00
2023-05-09T01:04:45.465Z,101348.78
2023-05-09T01:05:56.693Z,101349.72
2023-05-09T01:07:19.605Z,101360.13
2023-05-09T01:08:24.657Z,101354.00
2023-05-09T01:09:29.343Z,101354.84
2023-05-09T01:10:31.546Z,101358.34
2023-05-09T01:11:34.206Z,101355.84
2023-05-09T01:12:57.944Z,101354.09
2023-05-09T01:14:08.303Z,101357.59
2023-05-09T01:15:16.183Z,101355.84
2023-05-09T01:16:17.621Z,101354.09
2023-05-09T01:17:36.661Z,101354.13
2023-05-09T01:18:47.100Z,101351.47
2023-05-09T01:19:56.785Z,101353.22
2023-05-09T01:21:11.625Z,101352.41
2023-05-09T01:22:08.842Z,101352.47
2023-05-09T01:23:17.768Z,101348.13
2023-05-09T01:24:48.193Z,101349.03
2023-05-09T01:26:06.089Z,101345.63
2023-05-09T01:27:15.993Z,101337.72
2023-05-09T01:28:35.027Z,101340.38
2023-05-09T01:29:46.097Z,101343.00
2023-05-09T01:30:38.978Z,101343.00
2023-05-09T01:31:34.647Z,101338.56
2023-05-09T01:32:28.928Z,101341.25
2023-05-09T01:33:26.496Z,101338.56
2023-05-09T01:34:18.629Z,101330.69
2023-05-09T01:35:14.324Z,101332.47
2023-05-09T01:36:12.606Z,101328.13
2023-05-09T01:37:06.969Z,101336.88
2023-05-09T01:38:01.833Z,101329.94
2023-05-09T01:38:54.930Z,101329.06
2023-05-09T01:39:51.518Z,101334.34
2023-05-09T01:40:52.870Z,101334.34
2023-05-09T01:41:46.064Z,101329.06
2023-05-09T01:43:00.324Z,101326.50
2023-05-09T01:43:55.073Z,101327.44
2023-05-09T01:44:48.782Z,101334.34
2023-05-09T01:45:42.382Z,101325.59
2023-05-09T01:46:36.370Z,101333.44
2023-05-09T01:47:31.236Z,101330.88
2023-05-09T01:48:28.817Z,101334.34
2023-05-09T01:49:22.136Z,101337.88
2023-05-09T01:50:16.895Z,101337.84
2023-05-09T01:51:10.894Z,101344.78
2023-05-09T01:52:10.006Z,101329.91
2023-05-09T01:53:02.327Z,101331.69
2023-05-09T01:53:58.040Z,101340.50
2023-05-09T01:54:51.817Z,101339.63
2023-05-09T01:55:44.366Z,101337.91
2023-05-09T01:56:38.893Z,101345.56
2023-05-09T01:57:31.317Z,101339.50
2023-05-09T01:58:25.827Z,101338.66
2023-05-09T01:59:20.399Z,101333.34
2023-05-09T02:00:15.042Z,101336.00
2023-05-09T02:01:10.649Z,101331.66
2023-05-09T02:02:04.466Z,101335.16
2023-05-09T02:02:59.430Z,101326.50
2023-05-09T02:03:52.756Z,101326.50
2023-05-09T02:04:46.952Z,101325.63
2023-05-09T02:05:40.197Z,101330.03
2023-05-09T02:06:33.082Z,101330.94
2023-05-09T02:07:25.054Z,101332.75
2023-05-09T02:08:23.351Z,101337.91
2023-05-09T02:09:15.549Z,101336.91
2023-05-09T02:10:09.541Z,101333.38
2023-05-09T02:11:02.284Z,101331.66
2023-05-09T02:11:54.406Z,101334.31
2023-05-09T02:12:46.076Z,101331.72
2023-05-09T02:13:39.933Z,101324.75
2023-05-09T02:14:32.193Z,101323.88
2023-05-09T02:15:24.834Z,101322.16
2023-05-09T02:16:16.827Z,101326.56
2023-05-09T02:17:10.588Z,101322.22
2023-05-09T02:18:02.140Z,101320.50
2023-05-09T02:18:53.951Z,101325.75
2023-05-09T02:19:47.322Z,101318.84
2023-05-09T02:20:41.167Z,101323.25
2023-05-09T02:21:33.105Z,101317.13
2023-05-09T02:22:24.901Z,101324.09
2023-05-09T02:23:16.495Z,101327.59
2023-05-09T02:24:08.173Z,101324.97
2023-05-09T02:25:00.706Z,101328.47
2023-05-09T02:25:55.375Z,101322.38
2023-05-09T02:26:47.693Z,101327.50
2023-05-09T02:27:40.979Z,101326.75
2023-05-09T02:28:33.582Z,101321.56
2023-05-09T02:29:40.681Z,101325.03
2023-05-09T02:30:38.815Z,101318.00
2023-05-09T02:31:31.615Z,101320.56
2023-05-09T02:32:29.153Z,101324.91
2023-05-09T02:33:20.896Z,101324.94
2023-05-09T02:34:14.071Z,101325.03
2023-05-09T02:35:10.360Z,101322.38
2023-05-09T02:36:02.712Z,101324.94
2023-05-09T02:36:54.397Z,101319.72
2023-05-09T02:37:50.161Z,101317.88
2023-05-09T02:38:41.820Z,101317.09
2023-05-09T02:39:33.800Z,101319.75
2023-05-09T02:40:29.473Z,101319.78
2023-05-09T02:41:27.406Z,101310.16
2023-05-09T02:42:25.409Z,101315.47
2023-05-09T02:43:17.136Z,101314.56
2023-05-09T02:44:11.098Z,101309.28
2023-05-09T02:45:02.607Z,101316.28
2023-05-09T02:45:54.392Z,101312.81
2023-05-09T02:46:45.890Z,101310.16
2023-05-09T02:47:38.131Z,101308.41
2023-05-09T02:48:29.831Z,101306.63
2023-05-09T02:49:31.429Z,101311.00
2023-05-09T02:50:25.261Z,101309.19
2023-05-09T02:51:16.906Z,101315.22
2023-05-09T02:52:08.825Z,101310.88
2023-05-09T02:53:00.368Z,101312.69
2023-05-09T02:53:51.806Z,101311.78
2023-05-09T02:54:43.578Z,101303.94
2023-05-09T02:55:35.172Z,101302.25
2023-05-09T02:56:26.723Z,101302.28
2023-05-09T02:57:18.187Z,101300.50
2023-05-09T02:58:14.281Z,101300.44
2023-05-09T02:59:07.266Z,101295.19
2023-05-09T03:00:01.404Z,101296.91
2023-05-09T03:00:54.001Z,101296.97
2023-05-09T03:01:46.520Z,101291.66
2023-05-09T03:02:38.728Z,101298.66
2023-05-09T03:03:34.595Z,101296.00
2023-05-09T03:04:32.020Z,101300.34
2023-05-09T03:05:25.263Z,101294.22
2023-05-09T03:06:16.771Z,101297.75
2023-05-09T03:07:08.344Z,101296.00
2023-05-09T03:07:59.761Z,101297.69
2023-05-09T03:08:51.541Z,101295.03
2023-05-09T03:09:43.133Z,101292.41
2023-05-09T03:10:35.637Z,101288.94
2023-05-09T03:11:27.752Z,101287.22
2023-05-09T03:12:19.279Z,101283.72
2023-05-09T03:13:10.780Z,101287.19
2023-05-09T03:14:02.999Z,101287.22
2023-05-09T03:14:54.414Z,101290.69
2023-05-09T03:15:45.931Z,101288.94
2023-05-09T03:16:38.044Z,101292.47
2023-05-09T03:17:32.866Z,101288.97
2023-05-09T03:18:24.579Z,101295.06
2023-05-09T03:19:16.572Z,101286.31
2023-05-09T03:20:08.528Z,101290.69
2023-05-09T03:21:00.370Z,101283.69
2023-05-09T03:21:52.250Z,101288.94
2023-05-09T03:22:48.612Z,101283.66
2023-05-09T03:23:40.811Z,101291.59
2023-05-09T03:24:32.582Z,101283.69
2023-05-09T03:25:27.362Z,101281.97
2023-05-09T03:26:24.010Z,101281.06
2023-05-09T03:27:15.718Z,101282.88
2023-05-09T03:28:07.137Z,101279.34
2023-05-09T03:28:58.916Z,101281.13
2023-05-09T03:29:50.456Z,101283.78
2023-05-09T03:30:43.519Z,101281.16
2023-05-09T03:31:38.194Z,101285.59
2023-05-09T03:32:29.734Z,101285.66
2023-05-09T03:33:21.273Z,101286.44
2023-05-09T03:34:15.207Z,101285.56
2023-05-09T03:35:11.012Z,101283.78
2023-05-09T03:36:02.992Z,101283.78
2023-05-09T03:36:54.418Z,101282.94
2023-05-09T03:37:46.041Z,101286.50
2023-05-09T03:38:38.704Z,101279.53
2023-05-09T03:39:30.251Z,101282.16
2023-05-09T03:40:24.486Z,101283.91
2023-05-09T03:41:27.960Z,101277.72
2023-05-09T03:42:19.545Z,101282.06
2023-05-09T03:43:14.202Z,101277.72
2023-05-09T03:44:06.309Z,101278.66
2023-05-09T03:44:57.992Z,101272.50
2023-05-09T03:45:49.438Z,101276.84
2023-05-09T03:46:43.437Z,101278.56
2023-05-09T03:47:35.322Z,101273.31
2023-05-09T03:48:27.526Z,101269.81
2023-05-09T03:49:21.709Z,101259.34
2023-05-09T03:50:16.843Z,101258.47
2023-05-09T03:51:09.367Z,101266.28
2023-05-09T03:52:04.045Z,101261.94
2023-05-09T03:52:56.858Z,101267.16
2023-05-09T03:53:49.565Z,101268.03
2023-05-09T03:54:41.501Z,101261.91
2023-05-09T03:55:33.336Z,101264.53
2023-05-09T03:56:26.587Z,101256.69
2023-05-09T03:57:18.512Z,101254.94
2023-05-09T03:58:13.084Z,101257.56
2023-05-09T03:59:07.400Z,101261.91
2023-05-09T03:59:59.190Z,101260.19
2023-05-09T04:00:50.736Z,101254.94
2023-05-09T04:01:47.609Z,101248.84
2023-05-09T04:02:39.366Z,101249.81
2023-05-09T04:03:31.938Z,101248.84
2023-05-09T04:04:26.041Z,101243.53
2023-05-09T04:05:18.150Z,101249.59
2023-05-09T04:06:10.255Z,101253.09
2023-05-09T04:07:06.538Z,101252.22
2023-05-09T04:07:58.223Z,101246.97
2023-05-09T04:08:49.764Z,101244.34
2023-05-09T04:09:42.715Z,101241.69
2023-05-09T04:10:36.606Z,101248.69
2023-05-09T04:11:29.056Z,101253.09
2023-05-09T04:12:23.643Z,101244.31
2023-05-09T04:13:16.478Z,101241.66
2023-05-09T04:14:10.332Z,101244.31
2023-05-09T04:15:04.440Z,101245.22
2023-05-09T04:15:56.179Z,101239.94
2023-05-09T04:16:48.051Z,101240.81
2023-05-09T04:17:41.376Z,101237.31
2023-05-09T04:18:32.911Z,101233.84
2023-05-09T04:19:24.814Z,101238.22
2023-05-09T04:20:16.647Z,101234.69
2023-05-09T04:21:09.396Z,101235.59
2023-05-09T04:22:00.919Z,101238.19
2023-05-09T04:22:52.289Z,101232.13
2023-05-09T04:23:44.990Z,101234.78
2023-05-09T04:24:37.392Z,101234.78
2023-05-09T04:25:29.463Z,101233.09
2023-05-09T04:26:21.762Z,101229.59
2023-05-09T04:27:16.993Z,101231.31
2023-05-09T04:28:08.661Z,101228.72
2023-05-09T04:29:00.947Z,101227.88
2023-05-09T04:29:53.731Z,101228.75
2023-05-09T04:30:45.742Z,101225.28
2023-05-09T04:31:37.640Z,101233.16
2023-05-09T04:32:31.256Z,101229.59
2023-05-09T04:33:24.449Z,101230.47
2023-05-09T04:34:16.836Z,101223.47
2023-05-09T04:35:10.291Z,101226.91
2023-05-09T04:36:08.372Z,101225.19
2023-05-09T04:37:00.209Z,101226.94
2023-05-09T04:37:53.437Z,101226.03
2023-05-09T04:38:45.124Z,101224.31
2023-05-09T04:39:43.290Z,101220.81
2023-05-09T04:40:41.906Z,101227.84
2023-05-09T04:41:39.188Z,101219.97
2023-05-09T04:42:33.650Z,101226.94
2023-05-09T04:43:27.859Z,101221.72
2023-05-09T04:44:21.613Z,101224.31
2023-05-09T04:45:13.676Z,101224.25
2023-05-09T04:46:08.206Z,101220.78
2023-05-09T04:47:00.527Z,101226.91
2023-05-09T04:47:52.777Z,101226.00
2023-05-09T04:48:44.513Z,101219.94
2023-05-09T04:49:35.944Z,101228.66
2023-05-09T04:50:27.398Z,101218.22
2023-05-09T04:51:19.009Z,101214.69
2023-05-09T04:52:10.476Z,101213.81
2023-05-09T04:53:01.917Z,101215.53
2023-05-09T04:53:55.553Z,101212.91
2023-05-09T04:54:52.347Z,101219.06
2023-05-09T04:55:46.488Z,101217.31
2023-05-09T04:56:40.449Z,101211.22
2023-05-09T04:57:32.084Z,101212.09
2023-05-09T04:58:26.451Z,101216.47
2023-05-09T04:59:18.557Z,101218.22
2023-05-09T05:00:16.804Z,101213.88
2023-05-09T05:01:10.476Z,101215.59
2023-05-09T05:02:02.897Z,101217.34
2023-05-09T05:02:56.773Z,101219.97
2023-05-09T05:03:50.813Z,101220.00
2023-05-09T05:04:42.345Z,101214.81
2023-05-09T05:05:40.056Z,101217.44
2023-05-09T05:06:34.822Z,101215.75
2023-05-09T05:07:26.668Z,101208.75
2023-05-09T05:08:18.610Z,101208.75
2023-05-09T05:09:11.880Z,101218.41
2023-05-09T05:10:03.438Z,101212.34
2023-05-09T05:10:55.153Z,101208.84
2023-05-09T05:11:58.459Z,101214.91
2023-05-09T05:12:52.701Z,101215.00
2023-05-09T05:13:46.465Z,101210.66
2023-05-09T05:14:37.886Z,101208.94
2023-05-09T05:15:31.713Z,101210.72
2023-05-09T05:16:23.983Z,101202.81
2023-05-09T05:17:17.298Z,101212.53
2023-05-09T05:18:12.038Z,101204.69
2023-05-09T05:19:03.631Z,101203.81
2023-05-09T05:20:01.433Z,101200.38
2023-05-09T05:20:58.624Z,101201.28
2023-05-09T05:21:50.515Z,101209.16
2023-05-09T05:22:42.048Z,101199.63
2023-05-09T05:23:36.939Z,101204.84
2023-05-09T05:24:29.578Z,101200.50
2023-05-09T05:25:22.372Z,101202.28
2023-05-09T05:26:18.577Z,101199.66
2023-05-09T05:27:11.627Z,101195.31
2023-05-09T05:28:03.291Z,101193.59
2023-05-09T05:28:56.425Z,101194.50
2023-05-09T05:29:50.338Z,101193.69
2023-05-09T05:30:42.090Z,101191.97
2023-05-09T05:31:33.632Z,101180.59
2023-05-09T05:32:25.198Z,101182.34
2023-05-09T05:33:16.728Z,101182.38
2023-05-09T05:34:08.584Z,101180.63
2023-05-09T05:35:02.565Z,101188.53
2023-05-09T05:35:56.794Z,101183.34
2023-05-09T05:36:48.495Z,101189.47
2023-05-09T05:37:41.447Z,101182.47
2023-05-09T05:38:33.268Z,101178.97
2023-05-09T05:39:27.199Z,101181.63
2023-05-09T05:40:19.116Z,101174.66
2023-05-09T05:41:15.512Z,101184.34
2023-05-09T05:42:07.304Z,101177.38
2023-05-09T05:42:59.191Z,101173.91
2023-05-09T05:43:54.093Z,101182.66
2023-05-09T05:44:46.107Z,101171.28
2023-05-09T05:45:38.118Z,101173.94
2023-05-09T05:46:32.165Z,101173.94
2023-05-09T05:47:24.556Z,101174.81
2023-05-09T05:48:19.347Z,101165.22
2023-05-09T05:49:13.333Z,101167.88
2023-05-09T05:50:11.771Z,101169.66
2023-05-09T05:51:03.741Z,101167.03
2023-05-09T05:51:56.885Z,101164.44
2023-05-09T05:52:49.180Z,101166.19
2023-05-09T05:53:42.641Z,101171.47
2023-05-09T05:54:34.761Z,101164.47
2023-05-09T05:55:26.259Z,101165.34
2023-05-09T05:56:17.820Z,101161.81
2023-05-09T05:57:09.304Z,101159.19
2023-05-09T05:58:01.263Z,101156.53
2023-05-09T05:58:53.987Z,101167.97
2023-05-09T05:59:50.270Z,101162.72
2023-05-09T06:00:41.964Z,101164.44
2023-05-09T06:01:33.593Z,101158.31
2023-05-09T06:02:25.394Z,101159.19
2023-05-09T06:03:17.440Z,101156.59
2023-05-09T06:04:17.085Z,101153.97
2023-05-09T06:05:09.052Z,101154.84
2023-05-09T06:06:00.657Z,101153.09
2023-05-09T06:06:52.385Z,101154.00
2023-05-09T06:07:46.732Z,101147.84
2023-05-09T06:08:38.226Z,101152.22
2023-05-09T06:09:29.859Z,101149.63
2023-05-09T06:10:21.527Z,101151.41
2023-05-09T06:11:16.506Z,101147.91
2023-05-09T06:12:12.058Z,101145.25
2023-05-09T06:13:06.530Z,101154.91
2023-05-09T06:13:59.292Z,101144.38
2023-05-09T06:14:53.152Z,101146.13
2023-05-09T06:15:44.879Z,101144.38
2023-05-09T06:16:36.371Z,101150.50
2023-05-09T06:17:28.036Z,101150.53
2023-05-09T06:18:20.880Z,101150.53
2023-05-09T06:19:12.914Z,101153.13
2023-05-09T06:20:05.741Z,101150.50
2023-05-09T06:20:57.153Z,101138.25
2023-05-09T06:21:49.534Z,101142.63
2023-05-09T06:22:40.939Z,101140.84
2023-05-09T06:23:33.204Z,101140.84
2023-05-09T06:24:35.236Z,101136.47
2023-05-09T06:25:27.003Z,101139.97
2023-05-09T06:26:18.478Z,101139.09
2023-05-09T06:27:10.006Z,101140.84
2023-05-09T06:28:01.386Z,101135.56
2023-05-09T06:28:52.827Z,101139.91
2023-05-09T06:29:44.252Z,101133.78
2023-05-09T06:30:35.626Z,101137.28
2023-05-09T06:31:27.351Z,101140.75
2023-05-09T06:32:19.484Z,101146.91
2023-05-09T06:33:13.560Z,101139.06
2023-05-09T06:34:08.558Z,101138.16
2023-05-09T06:35:00.274Z,101145.19
2023-05-09T06:35:51.730Z,101135.50
2023-05-09T06:36:43.187Z,101145.16
2023-05-09T06:37:34.939Z,101136.38
2023-05-09T06:38:26.530Z,101138.16
2023-05-09T06:39:17.977Z,101137.25
2023-05-09T06:40:12.330Z,101131.97
2023-05-09T06:41:04.096Z,101135.47
2023-05-09T06:42:01.024Z,101138.09
2023-05-09T06:42:57.057Z,101121.41
2023-05-09T06:43:49.877Z,101125.81
2023-05-09T06:44:41.492Z,101125.00
2023-05-09T06:45:32.988Z,101120.59
2023-05-09T06:46:26.641Z,101122.34
2023-05-09T06:47:18.070Z,101115.38
2023-05-09T06:48:11.392Z,101116.22
2023-05-09T06:49:03.179Z,101112.72
2023-05-09T06:49:54.676Z,101114.50
2023-05-09T06:50:46.294Z,101118.88
2023-05-09T06:51:38.013Z,101122.41
2023-05-09T06:52:29.408Z,101113.59
2023-05-09T06:53:20.925Z,101116.22
2023-05-09T06:54:12.669Z,101118.81
2023-05-09T06:55:04.484Z,101115.28
2023-05-09T06:56:00.163Z,101115.25
2023-05-09T06:56:51.841Z,101114.41
2023-05-09T06:57:43.334Z,101108.25
2023-05-09T06:58:34.881Z,101112.56
2023-05-09T06:59:26.969Z,101103.78
2023-05-09T07:00:18.646Z,101109.97
2023-05-09T07:01:10.177Z,101111.78
2023-05-09T07:02:01.721Z,101102.97
2023-05-09T07:02:54.508Z,101110.84
2023-05-09T07:03:47.444Z,101112.59
2023-05-09T07:04:38.949Z,101110.88
2023-05-09T07:05:30.565Z,101103.88
2023-05-09T07:06:25.389Z,101101.25
2023-05-09T07:07:17.263Z,101108.25
2023-05-09T07:08:08.664Z,101096.81
2023-05-09T07:09:00.214Z,101091.53
2023-05-09T07:10:00.715Z,101092.41
2023-05-09T07:10:59.181Z,101088.84
2023-05-09T07:11:50.622Z,101087.94
2023-05-09T07:12:42.139Z,101081.75
2023-05-09T07:13:33.965Z,101082.66
2023-05-09T07:14:25.705Z,101086.13
2023-05-09T07:15:28.720Z,101090.63
2023-05-09T07:16:29.669Z,101084.47
2023-05-09T07:17:24.022Z,101079.19
2023-05-09T07:18:15.784Z,101080.88
2023-05-09T07:19:07.494Z,101082.63
2023-05-09T07:20:03.819Z,101080.88
2023-05-09T07:20:55.715Z,101082.56
2023-05-09T07:21:47.137Z,101074.56
2023-05-09T07:22:38.714Z,101072.81
2023-05-09T07:23:32.422Z,101067.47
2023-05-09T07:24:23.810Z,101072.72
2023-05-09T07:25:17.730Z,101069.13
2023-05-09T07:26:11.638Z,101063.00
2023-05-09T07:27:03.865Z,101072.56
2023-05-09T07:27:55.414Z,101063.75
2023-05-09T07:28:46.879Z,101054.16
2023-05-09T07:29:40.678Z,101055.03
2023-05-09T07:30:32.174Z,101056.03
2023-05-09T07:31:23.683Z,101060.34
2023-05-09T07:32:15.553Z,101060.41
2023-05-09T07:33:09.491Z,101057.72
2023-05-09T07:34:01.062Z,101055.00
2023-05-09T07:34:52.637Z,101048.84
2023-05-09T07:35:44.258Z,101050.59
2023-05-09T07:37:34.918Z,101055.06
2023-05-09T07:38:26.682Z,101052.34
2023-05-09T07:39:18.168Z,101051.41
2023-05-09T07:40:13.279Z,101053.16
2023-05-09T07:41:04.961Z,101055.72
2023-05-09T07:41:56.494Z,101048.66
2023-05-09T07:42:51.704Z,101052.97
2023-05-09T07:43:43.184Z,101044.09
2023-05-09T07:44:34.580Z,101048.38
2023-05-09T07:45:26.090Z,101039.66
2023-05-09T07:46:17.567Z,101042.38
2023-05-09T07:47:09.373Z,101044.16
2023-05-09T07:48:00.922Z,101040.53
2023-05-09T07:48:52.422Z,101035.97
2023-05-09T07:49:46.215Z,101042.09
2023-05-09T07:50:45.116Z,101042.03
2023-05-09T07:51:36.791Z,101044.81
2023-05-09T07:52:28.207Z,101034.06
2023-05-09T07:53:19.603Z,101036.75
2023-05-09T07:54:11.208Z,101044.59
2023-05-09T07:55:02.980Z,101040.06
2023-05-09T07:55:55.998Z,101037.47
2023-05-09T07:56:47.396Z,101037.50
2023-05-09T07:57:39.785Z,101037.53
2023-05-09T07:58:31.214Z,101033.88
2023-05-09T07:59:24.156Z,101037.34
2023-05-09T08:00:16.436Z,101038.16
2023-05-09T08:01:07.886Z,101036.63
2023-05-09T08:01:59.440Z,101032.41
2023-05-09T08:02:51.862Z,101032.34
2023-05-09T08:03:43.500Z,101026.97
2023-05-09T08:04:38.331Z,101021.78
2023-05-09T08:05:29.968Z,101024.41
2023-05-09T08:06:21.795Z,101025.25
2023-05-09T08:07:13.374Z,101025.09
2023-05-09T08:08:07.827Z,101026.69
2023-05-09T08:09:01.564Z,101016.84
2023-05-09T08:09:55.632Z,101021.28
2023-05-09T08:10:47.046Z,101027.31
2023-05-09T08:11:38.575Z,101017.56
2023-05-09T08:12:30.018Z,101018.22
2023-05-09T08:13:22.387Z,101019.81
2023-05-09T08:14:15.028Z,101014.63
2023-05-09T08:15:07.606Z,101014.50
2023-05-09T08:16:02.267Z,101008.28
2023-05-09T08:16:54.222Z,101008.25
2023-05-09T08:17:45.800Z,101010.19
2023-05-09T08:18:37.332Z,101004.28
2023-05-09T08:19:28.793Z,101001.09
2023-05-09T08:20:21.530Z,101001.09
2023-05-09T08:21:13.453Z,101006.38
2023-05-09T08:22:04.922Z,101001.94
2023-05-09T08:22:56.367Z,100995.00
2023-05-09T08:23:48.034Z,101000.19
2023-05-09T08:24:39.732Z,100997.41
2023-05-09T08:25:33.864Z,100993.13
2023-05-09T08:26:27.168Z,100993.13
2023-05-09T08:27:18.620Z,100994.88
2023-05-09T08:28:10.212Z,100988.78
2023-05-09T08:29:01.978Z,100989.53
2023-05-09T08:29:53.488Z,100990.31
2023-05-09T08:30:44.946Z,100985.94
2023-05-09T08:31:36.454Z,100988.47
2023-05-09T08:32:29.988Z,100988.72
2023-05-09T08:33:21.500Z,100985.16
2023-05-09T08:34:12.971Z,100986.00
2023-05-09T08:35:04.979Z,100978.13
2023-05-09T08:35:56.595Z,100980.03
2023-05-09T08:36:48.584Z,100983.53
2023-05-09T08:37:44.805Z,100979.97
2023-05-09T08:38:40.357Z,100983.44
2023-05-09T08:39:34.850Z,100978.06
2023-05-09T08:40:26.409Z,100981.56
2023-05-09T08:41:19.716Z,100971.88
2023-05-09T08:42:15.735Z,100970.97
2023-05-09T08:43:07.858Z,100976.25
2023-05-09T08:43:59.688Z,100967.34
2023-05-09T08:44:51.138Z,100974.41
2023-05-09T08:45:49.720Z,100972.72
2023-05-09T08:46:47.785Z,100963.00
2023-05-09T08:47:40.001Z,100973.47
2023-05-09T08:48:35.990Z,100964.59
2023-05-09T08:49:28.079Z,100966.22
2023-05-09T08:50:20.962Z,100968.78
2023-05-09T08:51:13.941Z,100961.63
2023-05-09T08:52:06.111Z,100963.16
2023-05-09T08:52:58.787Z,100967.38
2023-05-09T08:53:52.216Z,100955.03
2023-05-09T08:54:44.166Z,100961.97
2023-05-09T08:55:36.024Z,100957.56
2023-05-09T08:56:27.596Z,100954.19
2023-05-09T08:57:19.340Z,100960.28
2023-05-09T08:58:14.303Z,100954.03
2023-05-09T08:59:06.559Z,100953.19
2023-05-09T09:00:00.234Z,100955.03
2023-05-09T09:00:53.746Z,100946.44
2023-05-09T09:01:46.693Z,100950.84
2023-05-09T09:02:43.781Z,100949.94
2023-05-09T09:03:37.912Z,100948.97
2023-05-09T09:04:29.799Z,100952.47
2023-05-09T09:05:39.994Z,100953.53
2023-05-09T09:06:34.838Z,100947.63
2023-05-09T09:07:32.982Z,100952.06
2023-05-09T09:08:27.899Z,100947.81
2023-05-09T09:09:21.966Z,100946.09
2023-05-09T09:10:13.784Z,100938.94
2023-05-09T09:11:05.688Z,100938.84
2023-05-09T09:11:58.026Z,100937.09
2023-05-09T09:12:53.141Z,100937.03
2023-05-09T09:13:47.515Z,100937.00
2023-05-09T09:14:46.203Z,100934.34
2023-05-09T09:15:40.531Z,100932.59
2023-05-09T09:16:34.576Z,100929.91
2023-05-09T09:17:30.397Z,100931.72
2023-05-09T09:18:30.659Z,100928.16
2023-05-09T09:19:27.794Z,100925.34
2023-05-09T09:20:24.547Z,100929.72
2023-05-09T09:21:19.418Z,100930.59
2023-05-09T09:22:19.070Z,100927.16
2023-05-09T09:23:17.221Z,100922.66
2023-05-09T09:24:09.476Z,100928.84
2023-05-09T09:25:01.995Z,100922.75
2023-05-09T09:26:02.355Z,100923.66
2023-05-09T09:26:56.902Z,100928.91
2023-05-09T09:27:52.849Z,100931.47
2023-05-09T09:28:44.578Z,100923.38
2023-05-09T09:29:38.702Z,100920.69
2023-05-09T09:30:30.516Z,100924.94
2023-05-09T09:31:30.159Z,100915.19
2023-05-09T09:32:32.833Z,100924.81
2023-05-09T09:33:26.252Z,100910.81
2023-05-09T09:34:22.772Z,100918.78
2023-05-09T09:35:14.150Z,100916.88
2023-05-09T09:36:08.267Z,100915.97
2023-05-09T09:36:59.805Z,100916.75
2023-05-09T09:37:59.867Z,100909.66
2023-05-09T09:39:00.307Z,100906.00
2023-05-09T09:39:56.212Z,100912.13
2023-05-09T09:40:57.300Z,100913.63
2023-05-09T09:41:48.877Z,100910.06
2023-05-09T09:42:42.908Z,100897.66
2023-05-09T09:43:34.356Z,100896.53
2023-05-09T09:44:25.918Z,100893.75
2023-05-09T09:45:20.182Z,100898.75
2023-05-09T09:46:14.133Z,100895.97
2023-05-09T09:47:12.784Z,100897.72
2023-05-09T09:48:11.954Z,100892.50
2023-05-09T09:49:03.494Z,100898.63
2023-05-09T09:49:54.879Z,100895.84
2023-05-09T09:50:48.612Z,100898.41
2023-05-09T09:51:40.926Z,100900.06
2023-05-09T09:52:32.427Z,100896.34
2023-05-09T09:53:30.063Z,100893.59
2023-05-09T09:54:22.189Z,100893.38
2023-05-09T09:55:13.721Z,100887.81
2023-05-09T09:56:05.504Z,100884.84
2023-05-09T09:56:59.175Z,100889.25
2023-05-09T09:57:51.723Z,100877.47
2023-05-09T09:58:45.281Z,100886.34
2023-05-09T09:59:36.782Z,100883.34
2023-05-09T10:00:28.770Z,100886.50
2023-05-09T10:01:20.815Z,100880.50
2023-05-09T10:02:12.749Z,100884.41
2023-05-09T10:03:04.334Z,100883.72
2023-05-09T10:03:56.139Z,100874.47
2023-05-09T10:04:47.960Z,100875.22
2023-05-09T10:05:40.754Z,100870.25
2023-05-09T10:06:32.813Z,100879.97
2023-05-09T10:07:24.336Z,100872.81
2023-05-09T10:08:17.351Z,100874.38
2023-05-09T10:09:10.063Z,100874.09
2023-05-09T10:10:05.874Z,100875.06
2023-05-09T10:11:01.927Z,100876.53
2023-05-09T10:11:55.064Z,100866.78
2023-05-09T10:12:47.613Z,100859.63
2023-05-09T10:13:39.300Z,100861.47
2023-05-09T10:14:35.356Z,100858.34